sensor_id;sensor_type;location;lat;lon;timestamp;P1;durP1;ratioP1;P2;durP2;ratioP2
75984;SDS011;65033;44.660;37.758;2023-01-26T00:00:10;8.65;;;7.63;;
75984;SDS011;65033;44.660;37.758;2023-01-26T00:01:17;8.68;;;6.93;;
75984;SDS011;65033;44.660;37.758;2023-01-26T00:02:21;7.88;;;7.07;;
75984;SDS011;65033;44.660;37.758;2023-01-26T00:03:25;8.35;;;6.90;;
75984;SDS011;65033;44.660;37.758;2023-01-26T00:04:29;7.78;;;6.75;;
75984;SDS011;65033;44.660;37.758;2023-01-26T00:05:35;7.68;;;6.85;;
75984;SDS011;65033;44.660;37.758;2023-01-26T00:06:39;8.60;;;6.38;;
75984;SDS011;65033;44.660;37.758;2023-01-26T00:07:42;7.93;;;7.13;;
75984;SDS011;65033;44.660;37.758;2023-01-26T00:08:47;8.27;;;7.13;;
75984;SDS011;65033;44.660;37.758;2023-01-26T00:09:51;7.13;;;6.43;;
75984;SDS011;65033;44.660;37.758;2023-01-26T00:10:54;8.60;;;6.35;;
75984;SDS011;65033;44.660;37.758;2023-01-26T00:11:58;6.95;;;6.10;;
75984;SDS011;65033;44.660;37.758;2023-01-26T00:13:01;7.22;;;6.53;;
75984;SDS011;65033;44.660;37.758;2023-01-26T00:14:04;7.80;;;6.95;;
75984;SDS011;65033;44.660;37.758;2023-01-26T00:15:10;7.65;;;6.85;;
75984;SDS011;65033;44.660;37.758;2023-01-26T00:16:13;7.07;;;5.78;;
75984;SDS011;65033;44.660;37.758;2023-01-26T00:17:19;7.45;;;6.65;;
75984;SDS011;65033;44.660;37.758;2023-01-26T00:18:28;7.43;;;6.53;;
75984;SDS011;65033;44.660;37.758;2023-01-26T00:19:32;7.63;;;6.93;;
75984;SDS011;65033;44.660;37.758;2023-01-26T00:20:35;7.90;;;7.10;;
75984;SDS011;65033;44.660;37.758;2023-01-26T00:21:38;7.88;;;6.53;;
75984;SDS011;65033;44.660;37.758;2023-01-26T00:22:41;14.15;;;7.38;;
75984;SDS011;65033;44.660;37.758;2023-01-26T00:23:45;9.15;;;7.10;;
75984;SDS011;65033;44.660;37.758;2023-01-26T00:24:49;7.82;;;6.65;;
75984;SDS011;65033;44.660;37.758;2023-01-26T00:25:52;8.20;;;6.47;;
75984;SDS011;65033;44.660;37.758;2023-01-26T00:26:56;7.57;;;6.07;;
75984;SDS011;65033;44.660;37.758;2023-01-26T00:27:59;8.00;;;7.07;;
75984;SDS011;65033;44.660;37.758;2023-01-26T00:29:03;7.82;;;7.03;;
75984;SDS011;65033;44.660;37.758;2023-01-26T00:30:07;7.30;;;6.53;;
75984;SDS011;65033;44.660;37.758;2023-01-26T00:31:12;7.68;;;6.60;;
75984;SDS011;65033;44.660;37.758;2023-01-26T00:32:16;6.63;;;5.93;;
75984;SDS011;65033;44.660;37.758;2023-01-26T00:33:22;7.85;;;7.05;;
75984;SDS011;65033;44.660;37.758;2023-01-26T00:34:28;6.80;;;5.97;;
75984;SDS011;65033;44.660;37.758;2023-01-26T00:35:31;8.02;;;6.30;;
75984;SDS011;65033;44.660;37.758;2023-01-26T00:36:36;7.32;;;6.57;;
75984;SDS011;65033;44.660;37.758;2023-01-26T00:37:40;7.38;;;6.30;;
75984;SDS011;65033;44.660;37.758;2023-01-26T00:38:43;7.68;;;6.90;;
75984;SDS011;65033;44.660;37.758;2023-01-26T00:39:47;7.55;;;6.47;;
75984;SDS011;65033;44.660;37.758;2023-01-26T00:40:50;8.02;;;6.55;;
75984;SDS011;65033;44.660;37.758;2023-01-26T00:41:54;7.82;;;6.75;;
75984;SDS011;65033;44.660;37.758;2023-01-26T00:43:15;7.55;;;5.80;;
75984;SDS011;65033;44.660;37.758;2023-01-26T00:44:19;7.53;;;6.70;;
75984;SDS011;65033;44.660;37.758;2023-01-26T00:45:22;7.18;;;6.43;;
75984;SDS011;65033;44.660;37.758;2023-01-26T00:46:28;6.50;;;5.22;;
75984;SDS011;65033;44.660;37.758;2023-01-26T00:47:33;8.23;;;7.40;;
75984;SDS011;65033;44.660;37.758;2023-01-26T00:48:36;7.05;;;6.35;;
75984;SDS011;65033;44.660;37.758;2023-01-26T00:49:41;6.85;;;6.15;;
75984;SDS011;65033;44.660;37.758;2023-01-26T00:50:44;6.88;;;5.93;;
75984;SDS011;65033;44.660;37.758;2023-01-26T00:51:47;7.35;;;6.47;;
75984;SDS011;65033;44.660;37.758;2023-01-26T00:52:50;6.75;;;6.05;;
75984;SDS011;65033;44.660;37.758;2023-01-26T00:53:58;7.38;;;6.68;;
75984;SDS011;65033;44.660;37.758;2023-01-26T00:55:01;7.28;;;6.13;;
75984;SDS011;65033;44.660;37.758;2023-01-26T00:56:05;8.10;;;6.25;;
75984;SDS011;65033;44.660;37.758;2023-01-26T00:57:09;6.88;;;6.13;;
75984;SDS011;65033;44.660;37.758;2023-01-26T00:58:12;7.20;;;6.50;;
75984;SDS011;65033;44.660;37.758;2023-01-26T00:59:15;7.07;;;6.32;;
75984;SDS011;65033;44.660;37.758;2023-01-26T01:00:20;7.18;;;6.47;;
75984;SDS011;65033;44.660;37.758;2023-01-26T01:01:24;7.53;;;6.82;;
75984;SDS011;65033;44.660;37.758;2023-01-26T01:02:28;7.40;;;5.78;;
75984;SDS011;65033;44.660;37.758;2023-01-26T01:03:33;6.72;;;5.78;;
75984;SDS011;65033;44.660;37.758;2023-01-26T01:04:36;6.90;;;6.20;;
75984;SDS011;65033;44.660;37.758;2023-01-26T01:05:39;7.28;;;6.57;;
75984;SDS011;65033;44.660;37.758;2023-01-26T01:06:43;7.82;;;7.10;;
75984;SDS011;65033;44.660;37.758;2023-01-26T01:07:46;8.05;;;6.93;;
75984;SDS011;65033;44.660;37.758;2023-01-26T01:08:49;7.93;;;6.70;;
75984;SDS011;65033;44.660;37.758;2023-01-26T01:09:53;7.60;;;5.95;;
75984;SDS011;65033;44.660;37.758;2023-01-26T01:11:05;7.57;;;6.78;;
75984;SDS011;65033;44.660;37.758;2023-01-26T01:12:09;7.07;;;6.38;;
75984;SDS011;65033;44.660;37.758;2023-01-26T01:13:15;7.72;;;6.07;;
75984;SDS011;65033;44.660;37.758;2023-01-26T01:14:18;8.18;;;6.93;;
75984;SDS011;65033;44.660;37.758;2023-01-26T01:15:21;6.95;;;6.25;;
75984;SDS011;65033;44.660;37.758;2023-01-26T01:16:25;7.22;;;6.53;;
75984;SDS011;65033;44.660;37.758;2023-01-26T01:17:31;6.95;;;6.25;;
75984;SDS011;65033;44.660;37.758;2023-01-26T01:18:37;7.00;;;6.30;;
75984;SDS011;65033;44.660;37.758;2023-01-26T01:19:40;7.53;;;6.78;;
75984;SDS011;65033;44.660;37.758;2023-01-26T01:20:47;8.60;;;5.80;;
75984;SDS011;65033;44.660;37.758;2023-01-26T01:21:50;7.90;;;6.72;;
75984;SDS011;65033;44.660;37.758;2023-01-26T01:22:53;7.05;;;6.28;;
75984;SDS011;65033;44.660;37.758;2023-01-26T01:23:56;7.40;;;6.05;;
75984;SDS011;65033;44.660;37.758;2023-01-26T01:25:00;7.35;;;6.57;;
75984;SDS011;65033;44.660;37.758;2023-01-26T01:26:04;7.47;;;6.70;;
75984;SDS011;65033;44.660;37.758;2023-01-26T01:27:07;7.35;;;6.20;;
75984;SDS011;65033;44.660;37.758;2023-01-26T01:28:11;6.82;;;6.13;;
75984;SDS011;65033;44.660;37.758;2023-01-26T01:29:14;7.13;;;6.28;;
75984;SDS011;65033;44.660;37.758;2023-01-26T01:30:17;8.02;;;6.85;;
75984;SDS011;65033;44.660;37.758;2023-01-26T01:31:21;7.85;;;6.18;;
75984;SDS011;65033;44.660;37.758;2023-01-26T01:32:25;6.78;;;6.07;;
75984;SDS011;65033;44.660;37.758;2023-01-26T01:33:29;7.53;;;6.57;;
75984;SDS011;65033;44.660;37.758;2023-01-26T01:34:33;7.18;;;6.15;;
75984;SDS011;65033;44.660;37.758;2023-01-26T01:35:37;8.25;;;7.03;;
75984;SDS011;65033;44.660;37.758;2023-01-26T01:36:40;7.85;;;6.38;;
75984;SDS011;65033;44.660;37.758;2023-01-26T01:37:43;7.15;;;6.45;;
75984;SDS011;65033;44.660;37.758;2023-01-26T01:38:46;7.30;;;6.32;;
75984;SDS011;65033;44.660;37.758;2023-01-26T01:39:50;7.30;;;6.28;;
75984;SDS011;65033;44.660;37.758;2023-01-26T01:40:54;7.10;;;6.40;;
75984;SDS011;65033;44.660;37.758;2023-01-26T01:41:58;7.65;;;6.90;;
75984;SDS011;65033;44.660;37.758;2023-01-26T01:43:01;7.03;;;6.32;;
75984;SDS011;65033;44.660;37.758;2023-01-26T01:44:14;6.93;;;6.22;;
75984;SDS011;65033;44.660;37.758;2023-01-26T01:45:38;6.97;;;6.25;;
75984;SDS011;65033;44.660;37.758;2023-01-26T01:46:44;8.48;;;6.65;;
75984;SDS011;65033;44.660;37.758;2023-01-26T01:47:51;6.85;;;6.03;;
75984;SDS011;65033;44.660;37.758;2023-01-26T01:48:57;7.43;;;6.25;;
75984;SDS011;65033;44.660;37.758;2023-01-26T01:50:08;7.72;;;6.38;;
75984;SDS011;65033;44.660;37.758;2023-01-26T01:51:19;7.18;;;6.45;;
75984;SDS011;65033;44.660;37.758;2023-01-26T01:52:29;6.82;;;5.88;;
75984;SDS011;65033;44.660;37.758;2023-01-26T01:53:34;6.97;;;5.60;;
75984;SDS011;65033;44.660;37.758;2023-01-26T01:54:42;7.18;;;6.45;;
75984;SDS011;65033;44.660;37.758;2023-01-26T01:55:51;6.60;;;5.90;;
75984;SDS011;65033;44.660;37.758;2023-01-26T01:56:59;7.55;;;6.38;;
75984;SDS011;65033;44.660;37.758;2023-01-26T01:58:06;7.55;;;6.35;;
75984;SDS011;65033;44.660;37.758;2023-01-26T01:59:10;7.07;;;5.53;;
75984;SDS011;65033;44.660;37.758;2023-01-26T02:00:16;7.18;;;6.47;;
75984;SDS011;65033;44.660;37.758;2023-01-26T02:01:23;6.53;;;5.90;;
75984;SDS011;65033;44.660;37.758;2023-01-26T02:02:26;7.45;;;6.28;;
75984;SDS011;65033;44.660;37.758;2023-01-26T02:03:30;7.35;;;6.45;;
75984;SDS011;65033;44.660;37.758;2023-01-26T02:04:35;7.47;;;6.18;;
75984;SDS011;65033;44.660;37.758;2023-01-26T02:05:43;6.93;;;6.20;;
75984;SDS011;65033;44.660;37.758;2023-01-26T02:06:54;6.40;;;5.68;;
75984;SDS011;65033;44.660;37.758;2023-01-26T02:08:00;7.00;;;6.18;;
75984;SDS011;65033;44.660;37.758;2023-01-26T02:09:04;7.57;;;6.68;;
75984;SDS011;65033;44.660;37.758;2023-01-26T02:10:08;6.80;;;5.85;;
75984;SDS011;65033;44.660;37.758;2023-01-26T02:11:27;7.43;;;6.47;;
75984;SDS011;65033;44.660;37.758;2023-01-26T02:12:35;6.90;;;6.07;;
75984;SDS011;65033;44.660;37.758;2023-01-26T02:13:41;8.18;;;7.30;;
75984;SDS011;65033;44.660;37.758;2023-01-26T02:14:46;6.22;;;5.57;;
75984;SDS011;65033;44.660;37.758;2023-01-26T02:15:50;6.25;;;5.38;;
75984;SDS011;65033;44.660;37.758;2023-01-26T02:16:54;6.30;;;5.55;;
75984;SDS011;65033;44.660;37.758;2023-01-26T02:17:57;7.15;;;6.45;;
75984;SDS011;65033;44.660;37.758;2023-01-26T02:19:04;7.93;;;6.20;;
75984;SDS011;65033;44.660;37.758;2023-01-26T02:20:18;7.15;;;5.93;;
75984;SDS011;65033;44.660;37.758;2023-01-26T02:21:31;6.57;;;5.95;;
75984;SDS011;65033;44.660;37.758;2023-01-26T02:22:37;7.68;;;6.15;;
75984;SDS011;65033;44.660;37.758;2023-01-26T02:23:48;6.95;;;6.18;;
75984;SDS011;65033;44.660;37.758;2023-01-26T02:25:00;6.38;;;5.78;;
75984;SDS011;65033;44.660;37.758;2023-01-26T02:26:11;6.55;;;5.85;;
75984;SDS011;65033;44.660;37.758;2023-01-26T02:27:16;7.18;;;6.47;;
75984;SDS011;65033;44.660;37.758;2023-01-26T02:28:20;6.97;;;6.30;;
75984;SDS011;65033;44.660;37.758;2023-01-26T02:29:25;6.82;;;6.13;;
75984;SDS011;65033;44.660;37.758;2023-01-26T02:30:29;6.68;;;6.07;;
75984;SDS011;65033;44.660;37.758;2023-01-26T02:31:33;7.10;;;6.43;;
75984;SDS011;65033;44.660;37.758;2023-01-26T02:32:37;6.93;;;6.18;;
75984;SDS011;65033;44.660;37.758;2023-01-26T02:33:41;7.22;;;6.53;;
75984;SDS011;65033;44.660;37.758;2023-01-26T02:34:45;7.40;;;6.18;;
75984;SDS011;65033;44.660;37.758;2023-01-26T02:35:48;6.50;;;5.90;;
75984;SDS011;65033;44.660;37.758;2023-01-26T02:36:55;7.45;;;6.72;;
75984;SDS011;65033;44.660;37.758;2023-01-26T02:38:00;6.65;;;5.85;;
75984;SDS011;65033;44.660;37.758;2023-01-26T02:39:11;6.57;;;5.90;;
75984;SDS011;65033;44.660;37.758;2023-01-26T02:40:29;7.38;;;5.90;;
75984;SDS011;65033;44.660;37.758;2023-01-26T02:41:40;6.85;;;6.03;;
75984;SDS011;65033;44.660;37.758;2023-01-26T02:43:02;6.90;;;6.18;;
75984;SDS011;65033;44.660;37.758;2023-01-26T02:44:07;6.80;;;6.03;;
75984;SDS011;65033;44.660;37.758;2023-01-26T02:45:14;7.22;;;6.53;;
75984;SDS011;65033;44.660;37.758;2023-01-26T02:46:19;6.57;;;5.88;;
75984;SDS011;65033;44.660;37.758;2023-01-26T02:47:22;6.88;;;6.05;;
75984;SDS011;65033;44.660;37.758;2023-01-26T02:48:26;7.00;;;6.30;;
75984;SDS011;65033;44.660;37.758;2023-01-26T02:49:47;6.90;;;6.18;;
75984;SDS011;65033;44.660;37.758;2023-01-26T02:50:55;6.57;;;5.88;;
75984;SDS011;65033;44.660;37.758;2023-01-26T02:51:58;8.07;;;6.28;;
75984;SDS011;65033;44.660;37.758;2023-01-26T02:53:02;7.30;;;5.93;;
75984;SDS011;65033;44.660;37.758;2023-01-26T02:54:05;7.22;;;5.97;;
75984;SDS011;65033;44.660;37.758;2023-01-26T02:55:09;7.53;;;6.13;;
75984;SDS011;65033;44.660;37.758;2023-01-26T02:56:24;6.80;;;5.90;;
75984;SDS011;65033;44.660;37.758;2023-01-26T02:57:30;6.78;;;5.95;;
75984;SDS011;65033;44.660;37.758;2023-01-26T02:58:36;7.40;;;6.70;;
75984;SDS011;65033;44.660;37.758;2023-01-26T02:59:39;6.97;;;5.93;;
75984;SDS011;65033;44.660;37.758;2023-01-26T03:00:43;7.07;;;6.38;;
75984;SDS011;65033;44.660;37.758;2023-01-26T03:01:46;7.97;;;6.38;;
75984;SDS011;65033;44.660;37.758;2023-01-26T03:02:53;6.68;;;5.88;;
75984;SDS011;65033;44.660;37.758;2023-01-26T03:03:59;7.30;;;6.35;;
75984;SDS011;65033;44.660;37.758;2023-01-26T03:05:02;6.85;;;6.15;;
75984;SDS011;65033;44.660;37.758;2023-01-26T03:06:06;6.90;;;6.20;;
75984;SDS011;65033;44.660;37.758;2023-01-26T03:07:10;6.20;;;5.60;;
75984;SDS011;65033;44.660;37.758;2023-01-26T03:08:14;6.50;;;5.90;;
75984;SDS011;65033;44.660;37.758;2023-01-26T03:09:17;6.40;;;5.60;;
75984;SDS011;65033;44.660;37.758;2023-01-26T03:10:24;6.88;;;6.18;;
75984;SDS011;65033;44.660;37.758;2023-01-26T03:11:28;7.00;;;5.90;;
75984;SDS011;65033;44.660;37.758;2023-01-26T03:12:44;6.10;;;5.50;;
75984;SDS011;65033;44.660;37.758;2023-01-26T03:13:48;6.57;;;5.80;;
75984;SDS011;65033;44.660;37.758;2023-01-26T03:14:52;6.63;;;5.90;;
75984;SDS011;65033;44.660;37.758;2023-01-26T03:16:13;6.88;;;6.18;;
75984;SDS011;65033;44.660;37.758;2023-01-26T03:17:19;6.60;;;5.70;;
75984;SDS011;65033;44.660;37.758;2023-01-26T03:18:23;7.53;;;5.63;;
75984;SDS011;65033;44.660;37.758;2023-01-26T03:19:44;6.35;;;5.75;;
75984;SDS011;65033;44.660;37.758;2023-01-26T03:22:47;6.65;;;5.95;;
75984;SDS011;65033;44.660;37.758;2023-01-26T03:24:09;6.35;;;5.75;;
75984;SDS011;65033;44.660;37.758;2023-01-26T03:25:33;8.30;;;6.53;;
75984;SDS011;65033;44.660;37.758;2023-01-26T03:26:56;6.07;;;5.47;;
75984;SDS011;65033;44.660;37.758;2023-01-26T03:28:23;6.72;;;5.35;;
75984;SDS011;65033;44.660;37.758;2023-01-26T03:29:27;6.80;;;6.00;;
75984;SDS011;65033;44.660;37.758;2023-01-26T03:30:32;6.28;;;5.53;;
75984;SDS011;65033;44.660;37.758;2023-01-26T03:31:36;5.72;;;4.95;;
75984;SDS011;65033;44.660;37.758;2023-01-26T03:32:40;6.28;;;5.63;;
75984;SDS011;65033;44.660;37.758;2023-01-26T03:33:48;6.55;;;5.93;;
75984;SDS011;65033;44.660;37.758;2023-01-26T03:34:51;6.85;;;6.15;;
75984;SDS011;65033;44.660;37.758;2023-01-26T03:35:54;6.72;;;6.03;;
75984;SDS011;65033;44.660;37.758;2023-01-26T03:36:58;6.82;;;6.00;;
75984;SDS011;65033;44.660;37.758;2023-01-26T03:38:09;7.05;;;6.20;;
75984;SDS011;65033;44.660;37.758;2023-01-26T03:39:19;7.57;;;6.03;;
75984;SDS011;65033;44.660;37.758;2023-01-26T03:40:41;6.53;;;5.70;;
75984;SDS011;65033;44.660;37.758;2023-01-26T03:42:03;5.93;;;5.32;;
75984;SDS011;65033;44.660;37.758;2023-01-26T03:43:27;6.13;;;5.53;;
75984;SDS011;65033;44.660;37.758;2023-01-26T03:44:48;6.60;;;5.80;;
75984;SDS011;65033;44.660;37.758;2023-01-26T03:46:12;6.57;;;5.88;;
75984;SDS011;65033;44.660;37.758;2023-01-26T03:47:34;6.30;;;5.57;;
75984;SDS011;65033;44.660;37.758;2023-01-26T03:48:58;6.38;;;5.78;;
75984;SDS011;65033;44.660;37.758;2023-01-26T03:50:22;6.97;;;5.93;;
75984;SDS011;65033;44.660;37.758;2023-01-26T03:51:43;6.00;;;5.40;;
75984;SDS011;65033;44.660;37.758;2023-01-26T03:53:14;6.78;;;5.10;;
75984;SDS011;65033;44.660;37.758;2023-01-26T03:54:40;6.55;;;5.85;;
75984;SDS011;65033;44.660;37.758;2023-01-26T03:56:03;6.97;;;6.20;;
75984;SDS011;65033;44.660;37.758;2023-01-26T03:57:29;6.82;;;5.95;;
75984;SDS011;65033;44.660;37.758;2023-01-26T03:58:37;5.85;;;5.25;;
75984;SDS011;65033;44.660;37.758;2023-01-26T03:59:43;6.28;;;5.60;;
75984;SDS011;65033;44.660;37.758;2023-01-26T04:00:52;6.90;;;6.10;;
75984;SDS011;65033;44.660;37.758;2023-01-26T04:01:56;6.88;;;6.13;;
75984;SDS011;65033;44.660;37.758;2023-01-26T04:03:18;6.90;;;5.78;;
75984;SDS011;65033;44.660;37.758;2023-01-26T04:04:40;13.75;;;12.25;;
75984;SDS011;65033;44.660;37.758;2023-01-26T04:06:02;22.05;;;19.75;;
75984;SDS011;65033;44.660;37.758;2023-01-26T04:07:24;24.80;;;22.08;;
75984;SDS011;65033;44.660;37.758;2023-01-26T04:08:47;27.60;;;22.58;;
75984;SDS011;65033;44.660;37.758;2023-01-26T04:09:50;26.08;;;23.25;;
75984;SDS011;65033;44.660;37.758;2023-01-26T04:10:53;19.77;;;17.33;;
75984;SDS011;65033;44.660;37.758;2023-01-26T04:11:59;14.13;;;12.63;;
75984;SDS011;65033;44.660;37.758;2023-01-26T04:13:03;13.35;;;11.88;;
75984;SDS011;65033;44.660;37.758;2023-01-26T04:14:36;15.88;;;13.05;;
75984;SDS011;65033;44.660;37.758;2023-01-26T04:16:00;14.43;;;12.88;;
75984;SDS011;65033;44.660;37.758;2023-01-26T04:17:22;15.80;;;12.07;;
75984;SDS011;65033;44.660;37.758;2023-01-26T04:18:44;14.93;;;13.32;;
75984;SDS011;65033;44.660;37.758;2023-01-26T04:20:07;15.57;;;12.50;;
75984;SDS011;65033;44.660;37.758;2023-01-26T04:21:30;16.08;;;13.63;;
75984;SDS011;65033;44.660;37.758;2023-01-26T04:22:45;13.45;;;12.13;;
75984;SDS011;65033;44.660;37.758;2023-01-26T04:23:53;14.25;;;12.73;;
75984;SDS011;65033;44.660;37.758;2023-01-26T04:24:59;12.80;;;11.48;;
75984;SDS011;65033;44.660;37.758;2023-01-26T04:26:03;13.68;;;11.93;;
75984;SDS011;65033;44.660;37.758;2023-01-26T04:27:07;13.88;;;12.48;;
75984;SDS011;65033;44.660;37.758;2023-01-26T04:28:12;14.50;;;12.55;;
75984;SDS011;65033;44.660;37.758;2023-01-26T04:29:16;14.43;;;11.90;;
75984;SDS011;65033;44.660;37.758;2023-01-26T04:30:22;15.38;;;12.25;;
75984;SDS011;65033;44.660;37.758;2023-01-26T04:31:25;14.20;;;11.73;;
75984;SDS011;65033;44.660;37.758;2023-01-26T04:32:29;14.57;;;13.00;;
75984;SDS011;65033;44.660;37.758;2023-01-26T04:33:32;14.77;;;12.27;;
75984;SDS011;65033;44.660;37.758;2023-01-26T04:34:36;13.13;;;11.73;;
75984;SDS011;65033;44.660;37.758;2023-01-26T04:35:46;14.13;;;12.63;;
75984;SDS011;65033;44.660;37.758;2023-01-26T04:36:59;15.35;;;13.75;;
75984;SDS011;65033;44.660;37.758;2023-01-26T04:38:11;15.43;;;13.80;;
75984;SDS011;65033;44.660;37.758;2023-01-26T04:39:16;15.30;;;13.23;;
75984;SDS011;65033;44.660;37.758;2023-01-26T04:40:22;14.45;;;12.95;;
75984;SDS011;65033;44.660;37.758;2023-01-26T04:41:27;12.95;;;11.55;;
75984;SDS011;65033;44.660;37.758;2023-01-26T04:42:36;14.25;;;12.77;;
75984;SDS011;65033;44.660;37.758;2023-01-26T04:43:40;13.93;;;12.35;;
75984;SDS011;65033;44.660;37.758;2023-01-26T04:44:43;15.27;;;12.45;;
75984;SDS011;65033;44.660;37.758;2023-01-26T04:45:57;14.55;;;13.05;;
75984;SDS011;65033;44.660;37.758;2023-01-26T04:47:02;13.82;;;12.18;;
75984;SDS011;65033;44.660;37.758;2023-01-26T04:48:06;13.20;;;11.82;;
75984;SDS011;65033;44.660;37.758;2023-01-26T04:49:10;15.07;;;12.88;;
75984;SDS011;65033;44.660;37.758;2023-01-26T04:50:14;15.43;;;12.20;;
75984;SDS011;65033;44.660;37.758;2023-01-26T04:51:20;14.40;;;12.05;;
75984;SDS011;65033;44.660;37.758;2023-01-26T04:52:24;15.93;;;12.15;;
75984;SDS011;65033;44.660;37.758;2023-01-26T04:53:28;12.48;;;10.57;;
75984;SDS011;65033;44.660;37.758;2023-01-26T04:54:31;13.52;;;12.13;;
75984;SDS011;65033;44.660;37.758;2023-01-26T04:55:35;14.13;;;12.52;;
75984;SDS011;65033;44.660;37.758;2023-01-26T04:56:38;13.65;;;11.98;;
75984;SDS011;65033;44.660;37.758;2023-01-26T04:57:42;13.48;;;12.07;;
75984;SDS011;65033;44.660;37.758;2023-01-26T04:58:45;14.00;;;12.48;;
75984;SDS011;65033;44.660;37.758;2023-01-26T04:59:49;13.52;;;12.02;;
75984;SDS011;65033;44.660;37.758;2023-01-26T05:00:55;15.25;;;12.55;;
75984;SDS011;65033;44.660;37.758;2023-01-26T05:02:01;13.85;;;12.45;;
75984;SDS011;65033;44.660;37.758;2023-01-26T05:03:04;12.75;;;11.40;;
75984;SDS011;65033;44.660;37.758;2023-01-26T05:04:10;18.73;;;15.20;;
75984;SDS011;65033;44.660;37.758;2023-01-26T05:05:20;23.63;;;18.33;;
75984;SDS011;65033;44.660;37.758;2023-01-26T05:06:24;23.33;;;17.27;;
75984;SDS011;65033;44.660;37.758;2023-01-26T05:07:28;22.42;;;16.63;;
75984;SDS011;65033;44.660;37.758;2023-01-26T05:08:33;25.95;;;18.02;;
75984;SDS011;65033;44.660;37.758;2023-01-26T05:09:37;22.50;;;18.63;;
75984;SDS011;65033;44.660;37.758;2023-01-26T05:11:01;17.75;;;15.02;;
75984;SDS011;65033;44.660;37.758;2023-01-26T05:12:19;18.92;;;14.20;;
75984;SDS011;65033;44.660;37.758;2023-01-26T05:13:57;19.55;;;13.77;;
75984;SDS011;65033;44.660;37.758;2023-01-26T05:15:21;17.38;;;14.23;;
75984;SDS011;65033;44.660;37.758;2023-01-26T05:16:36;16.80;;;13.80;;
75984;SDS011;65033;44.660;37.758;2023-01-26T05:17:58;16.33;;;13.40;;
75984;SDS011;65033;44.660;37.758;2023-01-26T05:19:24;16.23;;;14.27;;
75984;SDS011;65033;44.660;37.758;2023-01-26T05:21:00;15.55;;;12.50;;
75984;SDS011;65033;44.660;37.758;2023-01-26T05:22:13;15.45;;;13.60;;
75984;SDS011;65033;44.660;37.758;2023-01-26T05:23:34;16.08;;;14.35;;
75984;SDS011;65033;44.660;37.758;2023-01-26T05:25:00;16.83;;;14.30;;
75984;SDS011;65033;44.660;37.758;2023-01-26T05:26:11;14.82;;;13.30;;
75984;SDS011;65033;44.660;37.758;2023-01-26T05:27:40;15.70;;;13.15;;
75984;SDS011;65033;44.660;37.758;2023-01-26T05:28:46;22.65;;;20.33;;
75984;SDS011;65033;44.660;37.758;2023-01-26T05:29:52;28.80;;;24.02;;
75984;SDS011;65033;44.660;37.758;2023-01-26T05:31:02;28.98;;;24.77;;
75984;SDS011;65033;44.660;37.758;2023-01-26T05:32:07;29.33;;;25.63;;
75984;SDS011;65033;44.660;37.758;2023-01-26T05:33:10;27.42;;;22.52;;
75984;SDS011;65033;44.660;37.758;2023-01-26T05:34:14;26.20;;;23.42;;
75984;SDS011;65033;44.660;37.758;2023-01-26T05:35:17;26.02;;;20.38;;
75984;SDS011;65033;44.660;37.758;2023-01-26T05:36:20;20.27;;;17.98;;
75984;SDS011;65033;44.660;37.758;2023-01-26T05:37:24;22.88;;;20.50;;
75984;SDS011;65033;44.660;37.758;2023-01-26T05:38:29;21.13;;;18.92;;
75984;SDS011;65033;44.660;37.758;2023-01-26T05:39:35;21.08;;;18.08;;
75984;SDS011;65033;44.660;37.758;2023-01-26T05:40:40;22.10;;;19.73;;
75984;SDS011;65033;44.660;37.758;2023-01-26T05:41:44;21.08;;;18.80;;
75984;SDS011;65033;44.660;37.758;2023-01-26T05:42:53;21.38;;;18.40;;
75984;SDS011;65033;44.660;37.758;2023-01-26T05:44:22;20.60;;;18.05;;
75984;SDS011;65033;44.660;37.758;2023-01-26T05:45:32;20.35;;;17.98;;
75984;SDS011;65033;44.660;37.758;2023-01-26T05:46:35;18.77;;;16.85;;
75984;SDS011;65033;44.660;37.758;2023-01-26T05:47:40;23.13;;;17.55;;
75984;SDS011;65033;44.660;37.758;2023-01-26T05:48:48;19.42;;;17.42;;
75984;SDS011;65033;44.660;37.758;2023-01-26T05:49:51;22.45;;;17.00;;
75984;SDS011;65033;44.660;37.758;2023-01-26T05:50:59;19.95;;;15.85;;
75984;SDS011;65033;44.660;37.758;2023-01-26T05:52:07;19.63;;;17.10;;
75984;SDS011;65033;44.660;37.758;2023-01-26T05:53:13;20.23;;;18.00;;
75984;SDS011;65033;44.660;37.758;2023-01-26T05:54:19;19.05;;;17.10;;
75984;SDS011;65033;44.660;37.758;2023-01-26T05:55:23;19.42;;;16.30;;
75984;SDS011;65033;44.660;37.758;2023-01-26T05:56:27;19.73;;;17.60;;
75984;SDS011;65033;44.660;37.758;2023-01-26T05:57:34;20.60;;;16.23;;
75984;SDS011;65033;44.660;37.758;2023-01-26T05:58:44;18.92;;;16.98;;
75984;SDS011;65033;44.660;37.758;2023-01-26T05:59:47;18.98;;;17.05;;
75984;SDS011;65033;44.660;37.758;2023-01-26T06:00:52;18.50;;;16.60;;
75984;SDS011;65033;44.660;37.758;2023-01-26T06:02:04;19.40;;;17.40;;
75984;SDS011;65033;44.660;37.758;2023-01-26T06:03:11;18.00;;;14.77;;
75984;SDS011;65033;44.660;37.758;2023-01-26T06:04:15;19.75;;;17.00;;
75984;SDS011;65033;44.660;37.758;2023-01-26T06:05:26;18.17;;;16.30;;
75984;SDS011;65033;44.660;37.758;2023-01-26T06:06:29;18.10;;;16.02;;
75984;SDS011;65033;44.660;37.758;2023-01-26T06:07:50;18.83;;;16.40;;
75984;SDS011;65033;44.660;37.758;2023-01-26T06:08:59;18.98;;;16.80;;
75984;SDS011;65033;44.660;37.758;2023-01-26T06:10:05;17.27;;;15.32;;
75984;SDS011;65033;44.660;37.758;2023-01-26T06:11:30;17.48;;;15.55;;
75984;SDS011;65033;44.660;37.758;2023-01-26T06:12:56;19.13;;;16.17;;
75984;SDS011;65033;44.660;37.758;2023-01-26T06:14:20;17.35;;;15.35;;
75984;SDS011;65033;44.660;37.758;2023-01-26T06:15:24;16.63;;;14.95;;
75984;SDS011;65033;44.660;37.758;2023-01-26T06:16:30;16.85;;;15.10;;
75984;SDS011;65033;44.660;37.758;2023-01-26T06:17:34;16.88;;;15.20;;
75984;SDS011;65033;44.660;37.758;2023-01-26T06:18:42;17.10;;;15.32;;
75984;SDS011;65033;44.660;37.758;2023-01-26T06:19:45;16.45;;;14.85;;
75984;SDS011;65033;44.660;37.758;2023-01-26T06:20:49;17.05;;;15.20;;
75984;SDS011;65033;44.660;37.758;2023-01-26T06:21:52;17.13;;;15.32;;
75984;SDS011;65033;44.660;37.758;2023-01-26T06:22:59;16.50;;;14.80;;
75984;SDS011;65033;44.660;37.758;2023-01-26T06:24:08;15.82;;;14.23;;
75984;SDS011;65033;44.660;37.758;2023-01-26T06:25:12;16.25;;;14.13;;
75984;SDS011;65033;44.660;37.758;2023-01-26T06:26:15;15.57;;;14.07;;
75984;SDS011;65033;44.660;37.758;2023-01-26T06:27:19;16.40;;;14.73;;
75984;SDS011;65033;44.660;37.758;2023-01-26T06:28:24;16.55;;;14.63;;
75984;SDS011;65033;44.660;37.758;2023-01-26T06:29:28;16.15;;;14.27;;
75984;SDS011;65033;44.660;37.758;2023-01-26T06:30:31;16.88;;;14.52;;
75984;SDS011;65033;44.660;37.758;2023-01-26T06:31:39;16.30;;;13.90;;
75984;SDS011;65033;44.660;37.758;2023-01-26T06:32:45;16.27;;;13.80;;
75984;SDS011;65033;44.660;37.758;2023-01-26T06:33:51;20.13;;;14.55;;
75984;SDS011;65033;44.660;37.758;2023-01-26T06:34:54;16.30;;;13.65;;
75984;SDS011;65033;44.660;37.758;2023-01-26T06:36:00;15.85;;;14.18;;
75984;SDS011;65033;44.660;37.758;2023-01-26T06:37:04;15.00;;;13.35;;
75984;SDS011;65033;44.660;37.758;2023-01-26T06:38:11;15.40;;;13.40;;
75984;SDS011;65033;44.660;37.758;2023-01-26T06:39:16;14.50;;;13.00;;
75984;SDS011;65033;44.660;37.758;2023-01-26T06:40:20;16.13;;;13.43;;